Time,TemperatureF,DewpointF,PressureIn,WindDirection,WindDirectionDegrees,WindSpeedMPH,WindSpeedGustMPH,Humidity,HourlyPrecipIn,Conditions,Clouds,dailyrainin,SolarRadiationWatts/m^2,SoftwareType,DateUTC
2013-09-19 00:02:00,67.0,35.0,-100.00,West,263,6.0,10.0,30,0.00,,,0.00,0.000000,,2013-09-19 07:02:00,
2013-09-19 00:52:00,68.0,41.0,-100.00,WNW,291,6.0,8.0,37,0.00,,,0.00,0.000000,,2013-09-19 07:52:00,
2013-09-19 01:02:00,68.0,41.0,-100.00,WNW,291,6.0,8.0,37,0.00,,,0.00,0.000000,,2013-09-19 08:02:00,
2013-09-19 01:11:00,68.0,41.0,-100.00,WNW,291,6.0,8.0,37,0.00,,,0.00,0.000000,,2013-09-19 08:11:00,
2013-09-19 01:21:00,68.0,41.0,-100.00,WNW,291,6.0,8.0,37,0.00,,,0.00,0.000000,,2013-09-19 08:21:00,
2013-09-19 01:52:00,66.0,38.0,-100.00,West,269,6.0,9.0,35,-99.99,,,0.00,0.000000,,2013-09-19 08:52:00,
2013-09-19 02:02:00,66.0,38.0,-100.00,West,269,6.0,9.0,35,-99.99,,,0.00,0.000000,,2013-09-19 09:02:00,
2013-09-19 02:11:00,66.0,38.0,-100.00,West,269,6.0,9.0,35,-99.99,,,0.00,0.000000,,2013-09-19 09:11:00,
2013-09-19 02:21:00,66.0,38.0,-100.00,West,269,6.0,9.0,35,-99.99,,,0.00,0.000000,,2013-09-19 09:21:00,
2013-09-19 03:52:00,66.0,37.0,-100.00,WNW,284,6.0,7.0,34,-99.99,,,0.00,0.000000,,2013-09-19 10:52:00,
2013-09-19 04:03:00,66.0,37.0,-100.00,WNW,284,6.0,7.0,34,-99.99,,,0.00,0.000000,,2013-09-19 11:03:00,
2013-09-19 05:52:00,65.0,36.0,-100.00,West,274,4.0,7.0,34,0.00,,,0.00,0.000000,,2013-09-19 12:52:00,
2013-09-19 06:02:00,65.0,36.0,-100.00,West,274,4.0,7.0,34,0.00,,,0.00,0.000000,,2013-09-19 13:02:00,
2013-09-19 06:21:00,65.0,36.0,-100.00,West,274,4.0,7.0,34,0.00,,,0.00,0.000000,,2013-09-19 13:21:00,
2013-09-19 06:52:00,65.0,37.0,-100.00,NW,313,4.0,6.0,36,0.00,,,0.00,0.000000,,2013-09-19 13:52:00,
2013-09-19 07:02:00,65.0,37.0,-100.00,NW,313,4.0,6.0,36,0.00,,,0.00,0.000000,,2013-09-19 14:02:00,
2013-09-19 07:22:00,65.0,37.0,-100.00,NW,313,4.0,6.0,36,0.00,,,0.00,0.000000,,2013-09-19 14:22:00,
2013-09-19 09:13:00,72.0,41.0,-100.00,North,4,3.0,5.0,33,-99.99,,,0.00,167.000000,,2013-09-19 16:13:00,
2013-09-19 09:23:00,72.0,41.0,-100.00,North,4,3.0,5.0,33,-99.99,,,0.00,167.000000,,2013-09-19 16:23:00,
2013-09-19 10:53:00,76.0,42.0,-100.00,ENE,75,4.0,6.0,30,0.00,,,0.00,535.000000,,2013-09-19 17:53:00,
2013-09-19 11:02:00,76.0,42.0,-100.00,ENE,75,4.0,6.0,30,0.00,,,0.00,535.000000,,2013-09-19 18:02:00,
2013-09-19 11:11:00,76.0,42.0,-100.00,ENE,75,4.0,6.0,30,0.00,,,0.00,535.000000,,2013-09-19 18:11:00,
2013-09-19 11:22:00,76.0,42.0,-100.00,ENE,75,4.0,6.0,30,0.00,,,0.00,535.000000,,2013-09-19 18:22:00,
2013-09-19 12:21:00,78.0,32.0,-100.00,NE,45,7.0,10.0,19,0.00,,,0.00,682.000000,,2013-09-19 19:21:00,
2013-09-19 12:52:00,80.0,34.0,-100.00,NNE,21,8.0,12.0,19,0.00,,,0.00,774.000000,,2013-09-19 19:52:00,
2013-09-19 13:02:00,80.0,34.0,-100.00,NNE,21,8.0,12.0,19,0.00,,,0.00,774.000000,,2013-09-19 20:02:00,
2013-09-19 13:12:00,80.0,34.0,-100.00,NNE,21,8.0,12.0,19,0.00,,,0.00,774.000000,,2013-09-19 20:12:00,
2013-09-19 13:21:00,80.0,34.0,-100.00,NNE,21,8.0,12.0,19,0.00,,,0.00,774.000000,,2013-09-19 20:21:00,
2013-09-19 13:52:00,82.0,34.0,-100.00,North,5,6.0,11.0,18,0.00,,,0.00,810.000000,,2013-09-19 20:52:00,
2013-09-19 14:02:00,82.0,34.0,-100.00,North,5,6.0,11.0,18,0.00,,,0.00,810.000000,,2013-09-19 21:02:00,
2013-09-19 14:11:00,82.0,34.0,-100.00,North,5,6.0,11.0,18,0.00,,,0.00,810.000000,,2013-09-19 21:11:00,
2013-09-19 14:22:00,82.0,34.0,-100.00,North,5,6.0,11.0,18,0.00,,,0.00,810.000000,,2013-09-19 21:22:00,
2013-09-19 14:55:00,85.0,32.0,-100.00,NNW,345,6.0,11.0,15,0.00,,,0.00,785.000000,,2013-09-19 21:55:00,
2013-09-19 15:04:00,85.0,32.0,-100.00,NNW,345,6.0,11.0,15,0.00,,,0.00,785.000000,,2013-09-19 22:04:00,
2013-09-19 15:14:00,85.0,32.0,-100.00,NNW,345,6.0,11.0,15,0.00,,,0.00,785.000000,,2013-09-19 22:14:00,
2013-09-19 15:24:00,85.0,32.0,-100.00,NNW,345,6.0,11.0,15,0.00,,,0.00,785.000000,,2013-09-19 22:24:00,
2013-09-19 15:53:00,86.0,31.0,-100.00,North,7,5.0,11.0,14,0.00,,,0.00,695.000000,,2013-09-19 22:53:00,
2013-09-19 16:03:00,86.0,31.0,-100.00,North,7,5.0,11.0,14,0.00,,,0.00,695.000000,,2013-09-19 23:03:00,
2013-09-19 16:22:00,86.0,31.0,-100.00,North,7,5.0,11.0,14,0.00,,,0.00,695.000000,,2013-09-19 23:22:00,
2013-09-19 16:53:00,85.0,37.0,-100.00,North,5,7.0,13.0,18,0.00,,,0.00,550.000000,,2013-09-19 23:53:00,
2013-09-19 17:02:00,85.0,37.0,-100.00,North,5,7.0,13.0,18,0.00,,,0.00,550.000000,,2013-09-20 00:02:00,
2013-09-19 17:12:00,85.0,37.0,-100.00,North,5,7.0,13.0,18,0.00,,,0.00,550.000000,,2013-09-20 00:12:00,
2013-09-19 17:21:00,85.0,37.0,-100.00,North,5,7.0,13.0,18,0.00,,,0.00,550.000000,,2013-09-20 00:21:00,
2013-09-19 17:52:00,84.0,30.0,-100.00,NW,310,8.0,16.0,14,0.00,,,0.00,330.000000,,2013-09-20 00:52:00,
2013-09-19 18:02:00,84.0,30.0,-100.00,NW,310,8.0,16.0,14,0.00,,,0.00,330.000000,,2013-09-20 01:02:00,
2013-09-19 18:12:00,84.0,30.0,-100.00,NW,310,8.0,16.0,14,0.00,,,0.00,330.000000,,2013-09-20 01:12:00,
2013-09-19 18:22:00,84.0,30.0,-100.00,NW,310,8.0,16.0,14,0.00,,,0.00,330.000000,,2013-09-20 01:22:00,
2013-09-19 18:52:00,80.0,37.0,-100.00,West,281,8.0,15.0,21,0.00,,,0.00,176.000000,,2013-09-20 01:52:00,
2013-09-19 19:02:00,80.0,37.0,-100.00,West,281,8.0,15.0,21,0.00,,,0.00,176.000000,,2013-09-20 02:02:00,
2013-09-19 19:11:00,80.0,37.0,-100.00,West,281,8.0,15.0,21,0.00,,,0.00,176.000000,,2013-09-20 02:11:00,
2013-09-19 19:22:00,80.0,37.0,-100.00,West,281,8.0,15.0,21,0.00,,,0.00,176.000000,,2013-09-20 02:22:00,
2013-09-19 19:52:00,71.0,31.0,-100.00,West,259,9.0,12.0,23,0.00,,,0.00,25.000000,,2013-09-20 02:52:00,
2013-09-19 20:02:00,71.0,31.0,-100.00,West,259,9.0,12.0,23,0.00,,,0.00,25.000000,,2013-09-20 03:02:00,
2013-09-19 20:12:00,71.0,31.0,-100.00,West,259,9.0,12.0,23,0.00,,,0.00,25.000000,,2013-09-20 03:12:00,
2013-09-19 20:22:00,71.0,31.0,-100.00,West,259,9.0,12.0,23,0.00,,,0.00,25.000000,,2013-09-20 03:22:00,
2013-09-19 20:56:00,71.0,28.0,-100.00,West,261,12.0,17.0,20,0.00,,,0.00,0.000000,,2013-09-20 03:56:00,
2013-09-19 21:05:00,71.0,28.0,-100.00,West,261,12.0,17.0,20,0.00,,,0.00,0.000000,,2013-09-20 04:05:00,
2013-09-19 21:14:00,71.0,28.0,-100.00,West,261,12.0,17.0,20,0.00,,,0.00,0.000000,,2013-09-20 04:14:00,
2013-09-19 21:24:00,71.0,28.0,-100.00,West,261,12.0,17.0,20,0.00,,,0.00,0.000000,,2013-09-20 04:24:00,
2013-09-19 21:54:00,70.0,28.0,-100.00,West,263,13.0,16.0,21,0.00,,,0.00,0.000000,,2013-09-20 04:54:00,
2013-09-19 22:03:00,70.0,28.0,-100.00,West,263,13.0,16.0,21,0.00,,,0.00,0.000000,,2013-09-20 05:03:00,